Time;durP1;ratioP1;P1;durP2;ratioP2;P2;SDS_P1;SDS_P2;PMS_P1;PMS_P2;Temp;Humidity;BMP_temperature;BMP_pressure;BME280_temperature;BME280_humidity;BME280_pressure;Samples;Min_cycle;Max_cycle;Signal;HPM_P1;HPM_P2
2021/07/30 00:00:05;;;;;;;8.03;4.40;;;;;;;13.24;84.57;100471.59;694713;28;1231;-54
2021/07/30 00:00:26;;;;;;;6.32;4.20;;;;;;;13.37;83.15;100472.25;695146;28;1226;-55
2021/07/30 00:00:46;;;;;;;6.30;4.03;;;;;;;13.46;83.11;100468.59;695495;28;4468;-51
2021/07/30 00:01:07;;;;;;;6.10;4.13;;;;;;;13.49;83.51;100468.53;695593;28;1182;-51
2021/07/30 00:01:27;;;;;;;7.67;4.57;;;;;;;13.42;83.78;100465.16;695856;28;3231;-52
2021/07/30 00:01:47;;;;;;;7.43;4.65;;;;;;;13.36;84.12;100470.53;694541;28;3366;-51
2021/07/30 00:02:08;;;;;;;7.40;4.70;;;;;;;13.33;84.56;100470.53;694017;28;1241;-55
2021/07/30 00:02:28;;;;;;;6.43;4.70;;;;;;;13.30;85.25;100473.22;694415;28;1265;-52
2021/07/30 00:02:49;;;;;;;6.13;4.40;;;;;;;13.28;85.08;100475.03;693410;28;1437;-54
2021/07/30 00:03:09;;;;;;;6.80;4.30;;;;;;;13.24;85.18;100468.97;693457;28;1139;-54
2021/07/30 00:03:29;;;;;;;6.17;4.57;;;;;;;13.22;85.60;100468.16;693799;28;1148;-52
2021/07/30 00:03:50;;;;;;;6.20;4.73;;;;;;;13.20;86.05;100476.94;693618;28;4428;-52
2021/07/30 00:04:10;;;;;;;7.18;4.70;;;;;;;13.23;84.36;100469.84;694841;28;1178;-53
2021/07/30 00:04:30;;;;;;;7.43;4.70;;;;;;;13.29;84.36;100471.50;695329;28;3683;-51
2021/07/30 00:04:51;;;;;;;7.00;4.20;;;;;;;13.35;84.11;100465.28;694771;28;1570;-53
2021/07/30 00:05:11;;;;;;;5.93;4.30;;;;;;;13.37;84.75;100468.78;695291;28;1127;-52
2021/07/30 00:05:32;;;;;;;7.40;4.67;;;;;;;13.39;84.81;100467.00;694983;28;1242;-53
2021/07/30 00:05:53;;;;;;;8.98;4.85;;;;;;;13.35;85.52;100468.81;696122;28;1130;-54
2021/07/30 00:06:13;;;;;;;9.38;4.80;;;;;;;13.31;85.16;100467.09;694561;28;1274;-51
2021/07/30 00:06:33;;;;;;;9.80;5.17;;;;;;;13.28;85.57;100472.41;693205;28;1272;-51
2021/07/30 00:06:54;;;;;;;9.23;5.00;;;;;;;13.27;85.17;100468.06;692198;28;4445;-51
2021/07/30 00:07:14;;;;;;;7.40;4.60;;;;;;;13.30;84.29;100465.34;693364;28;3113;-53
2021/07/30 00:07:35;;;;;;;6.53;4.50;;;;;;;13.34;84.20;100464.41;693382;28;1519;-53
2021/07/30 00:07:55;;;;;;;7.63;4.77;;;;;;;13.37;84.66;100474.03;693816;28;1345;-54
2021/07/30 00:08:15;;;;;;;6.77;4.50;;;;;;;13.41;84.47;100470.44;695666;28;1975;-53
2021/07/30 00:08:36;;;;;;;6.50;4.45;;;;;;;13.50;82.42;100465.03;695285;28;1282;-51
2021/07/30 00:08:56;;;;;;;6.43;4.40;;;;;;;13.54;83.19;100469.31;695872;28;1536;-52
2021/07/30 00:09:16;;;;;;;5.97;4.10;;;;;;;13.57;82.73;100460.50;695711;28;1310;-53
2021/07/30 00:09:37;;;;;;;8.27;4.30;;;;;;;13.55;83.03;100465.75;695662;28;4443;-51
2021/07/30 00:09:57;;;;;;;7.83;4.40;;;;;;;13.51;82.57;100461.47;695309;28;2097;-53
2021/07/30 00:10:17;;;;;;;8.27;4.80;;;;;;;13.48;83.36;100461.53;695316;28;2211;-53
2021/07/30 00:10:38;;;;;;;9.20;4.77;;;;;;;13.47;83.79;100464.19;695833;28;1579;-54
2021/07/30 00:10:58;;;;;;;8.38;4.75;;;;;;;13.44;84.13;100465.13;695922;28;1130;-52
2021/07/30 00:11:19;;;;;;;7.27;4.70;;;;;;;13.41;83.99;100470.44;695675;28;1082;-51
2021/07/30 00:11:40;;;;;;;6.88;4.45;;;;;;;13.38;84.17;100471.34;695743;28;1323;-55
2021/07/30 00:12:01;;;;;;;6.35;4.32;;;;;;;13.36;84.57;100467.91;696665;28;1364;-51
2021/07/30 00:12:21;;;;;;;7.20;4.70;;;;;;;13.35;84.73;100467.91;695728;28;1146;-51
2021/07/30 00:12:42;;;;;;;6.13;4.70;;;;;;;13.31;85.29;100463.63;694763;28;4545;-51
2021/07/30 00:13:02;;;;;;;6.85;4.80;;;;;;;13.28;85.30;100467.16;696007;28;4230;-53
2021/07/30 00:13:22;;;;;;;8.07;4.83;;;;;;;13.30;84.97;100462.72;695325;28;1186;-53
2021/07/30 00:13:43;;;;;;;8.88;4.80;;;;;;;13.27;85.18;100468.91;694568;28;1234;-54
2021/07/30 00:14:04;;;;;;;8.95;4.88;;;;;;;13.28;84.74;100464.53;695382;28;1305;-55
2021/07/30 00:14:25;;;;;;;7.22;4.68;;;;;;;13.32;84.12;100467.94;696295;28;1528;-50
2021/07/30 00:14:45;;;;;;;8.10;4.70;;;;;;;13.38;83.93;100470.50;692636;28;1136;-52
2021/07/30 00:15:06;;;;;;;7.03;4.47;;;;;;;13.41;84.81;100470.44;693529;28;1397;-51
2021/07/30 00:15:27;;;;;;;7.28;4.63;;;;;;;13.38;84.35;100470.50;694142;28;1100;-55
2021/07/30 00:15:47;;;;;;;8.10;4.60;;;;;;;13.37;84.34;100463.53;693794;28;4629;-54
2021/07/30 00:16:08;;;;;;;7.97;4.63;;;;;;;13.38;84.20;100466.09;694203;28;3615;-53
2021/07/30 00:16:28;;;;;;;8.77;4.80;;;;;;;13.41;84.41;100471.28;693410;28;2737;-51
2021/07/30 00:16:49;;;;;;;8.87;4.70;;;;;;;13.43;83.92;100466.00;694166;28;1122;-54
2021/07/30 00:17:09;;;;;;;7.97;4.67;;;;;;;13.38;84.46;100466.09;695864;28;1047;-52
2021/07/30 00:17:29;;;;;;;7.72;4.68;;;;;;;13.37;83.76;100467.00;696294;28;1757;-54
2021/07/30 00:17:51;;;;;;;8.50;4.73;;;;;;;13.42;82.95;100462.53;695872;28;1002;-53
2021/07/30 00:18:11;;;;;;;7.18;4.35;;;;;;;13.52;83.22;100467.59;695400;28;1384;-54
2021/07/30 00:18:31;;;;;;;6.83;4.43;;;;;;;13.52;83.67;100465.84;695587;28;1087;-53
2021/07/30 00:18:52;;;;;;;7.40;4.50;;;;;;;13.57;82.74;100466.63;692949;28;4565;-55
2021/07/30 00:19:12;;;;;;;7.30;4.78;;;;;;;13.55;83.00;100465.75;692584;28;3539;-55
2021/07/30 00:19:33;;;;;;;7.73;4.87;;;;;;;13.50;83.25;100462.38;693594;28;1346;-53
2021/07/30 00:19:53;;;;;;;8.25;4.95;;;;;;;13.43;84.25;100472.16;692770;28;1361;-55
2021/07/30 00:20:14;;;;;;;7.93;4.93;;;;;;;13.38;84.47;100468.72;693589;28;1476;-52
2021/07/30 00:20:34;;;;;;;6.85;4.60;;;;;;;13.37;84.32;100468.78;694740;28;1325;-55
2021/07/30 00:20:55;;;;;;;7.40;4.73;;;;;;;13.36;84.24;100462.66;692845;28;1154;-54
2021/07/30 00:21:15;;;;;;;8.85;4.80;;;;;;;13.35;84.13;100468.81;693184;28;1249;-54
2021/07/30 00:21:36;;;;;;;8.73;4.60;;;;;;;13.34;84.54;100471.44;691500;28;1092;-54
2021/07/30 00:21:56;;;;;;;7.50;4.75;;;;;;;13.31;84.88;100463.63;690258;28;4914;-52
2021/07/30 00:22:16;;;;;;;7.63;5.07;;;;;;;13.28;85.54;100470.63;689569;28;3914;-53
2021/07/30 00:22:37;;;;;;;7.57;4.78;;;;;;;13.28;85.44;100460.13;690489;28;3491;-53
2021/07/30 00:22:57;;;;;;;8.27;4.90;;;;;;;13.28;85.26;100465.41;690693;28;1523;-52
2021/07/30 00:23:18;;;;;;;9.75;5.10;;;;;;;13.28;85.03;100469.78;691224;28;1158;-51
2021/07/30 00:23:38;;;;;;;8.17;5.20;;;;;;;13.31;84.17;100461.84;694505;28;1162;-54
2021/07/30 00:23:58;;;;;;;7.97;4.82;;;;;;;13.34;84.22;100463.56;693545;28;1234;-54
2021/07/30 00:24:19;;;;;;;7.73;4.90;;;;;;;13.35;84.81;100463.56;694383;28;1242;-51
2021/07/30 00:24:39;;;;;;;9.63;4.97;;;;;;;13.34;84.86;100463.56;693829;28;4453;-51
2021/07/30 00:25:02;;;;;;;7.70;4.60;;;;;;;13.33;84.90;100467.91;695826;28;1294;-51
2021/07/30 00:25:22;;;;;;;7.75;4.90;;;;;;;13.35;84.43;100470.53;696110;28;2868;-52
2021/07/30 00:25:42;;;;;;;8.10;4.70;;;;;;;13.35;84.74;100465.28;695864;28;4038;-51
2021/07/30 00:26:03;;;;;;;6.50;4.70;;;;;;;13.35;84.26;100460.94;695518;28;1276;-52
2021/07/30 00:26:23;;;;;;;7.80;4.80;;;;;;;13.40;84.05;100460.81;695021;28;1336;-51
2021/07/30 00:26:44;;;;;;;7.97;4.82;;;;;;;13.44;83.80;100462.50;694779;28;1163;-53
2021/07/30 00:27:04;;;;;;;7.70;5.00;;;;;;;13.45;84.05;100461.59;694846;28;1520;-52
2021/07/30 00:27:24;;;;;;;8.00;4.77;;;;;;;13.45;84.37;100470.34;695589;28;1286;-55
2021/07/30 00:27:45;;;;;;;8.48;4.80;;;;;;;13.42;84.49;100466.94;694723;28;4580;-52
2021/07/30 00:28:05;;;;;;;7.37;4.70;;;;;;;13.36;84.62;100464.41;695512;28;1973;-52
2021/07/30 00:28:26;;;;;;;6.20;4.50;;;;;;;13.34;84.04;100461.78;695450;28;1123;-52
2021/07/30 00:28:46;;;;;;;7.43;4.80;;;;;;;13.31;84.63;100463.63;693258;28;2325;-52
2021/07/30 00:29:07;;;;;;;8.88;4.90;;;;;;;13.28;84.90;100465.41;693994;28;1193;-54
2021/07/30 00:29:29;;;;;;;8.40;4.80;;;;;;;13.28;85.12;100467.16;693573;28;3718;-56
2021/07/30 00:29:50;;;;;;;7.53;5.07;;;;;;;13.25;85.15;100464.56;693626;28;1853;-53
2021/07/30 00:30:11;;;;;;;8.87;4.63;;;;;;;13.23;85.57;100467.22;692967;28;1158;-54
2021/07/30 00:30:31;;;;;;;7.20;4.78;;;;;;;13.24;85.52;100468.13;694371;28;1258;-51
2021/07/30 00:30:51;;;;;;;7.13;4.85;;;;;;;13.24;85.33;100463.72;694994;28;4516;-54
2021/07/30 00:31:12;;;;;;;8.20;4.63;;;;;;;13.28;84.57;100459.28;695353;28;1669;-51
2021/07/30 00:31:32;;;;;;;7.38;4.50;;;;;;;13.38;83.16;100460.00;696377;28;1047;-55
2021/07/30 00:31:53;;;;;;;6.50;4.27;;;;;;;13.50;83.01;100464.13;695374;28;3259;-54
2021/07/30 00:32:13;;;;;;;7.35;4.60;;;;;;;13.52;83.94;100468.47;694741;28;3414;-51
2021/07/30 00:32:33;;;;;;;7.23;4.77;;;;;;;13.50;83.59;100462.38;695237;28;1293;-51
2021/07/30 00:32:54;;;;;;;8.77;4.72;;;;;;;13.48;83.46;100465.94;694286;28;1497;-55
2021/07/30 00:33:14;;;;;;;7.70;4.70;;;;;;;13.49;83.29;100467.69;695017;28;1002;-54
2021/07/30 00:33:37;;;;;;;7.47;4.53;;;;;;;13.45;83.50;100466.84;695084;28;988;-51
2021/07/30 00:33:57;;;;;;;8.68;4.72;;;;;;;13.42;83.96;100461.69;695215;28;4603;-55
2021/07/30 00:34:18;;;;;;;9.30;5.05;;;;;;;13.40;84.29;100466.97;695085;28;1628;-55
2021/07/30 00:34:38;;;;;;;8.37;5.00;;;;;;;13.38;84.45;100467.88;694326;28;1543;-53
2021/07/30 00:34:58;;;;;;;6.85;4.63;;;;;;;13.34;84.46;100467.03;696741;28;3675;-51
2021/07/30 00:35:19;;;;;;;7.23;4.60;;;;;;;13.34;84.59;100463.56;691619;28;3129;-52
2021/07/30 00:35:39;;;;;;;9.40;4.77;;;;;;;13.31;84.27;100463.63;693391;28;1223;-55
2021/07/30 00:35:59;;;;;;;7.72;4.88;;;;;;;13.28;84.13;100465.41;693519;28;1198;-52
2021/07/30 00:36:20;;;;;;;7.50;4.87;;;;;;;13.28;84.48;100470.63;690683;28;1416;-52
2021/07/30 00:36:40;;;;;;;8.13;4.93;;;;;;;13.27;84.21;100463.66;691185;28;4568;-53
2021/07/30 00:37:00;;;;;;;6.95;4.80;;;;;;;13.28;84.48;100475.03;691347;28;1060;-53
2021/07/30 00:37:21;;;;;;;8.93;4.80;;;;;;;13.26;84.50;100461.94;693694;28;1361;-51
2021/07/30 00:37:41;;;;;;;6.88;4.50;;;;;;;13.29;83.98;100469.75;690933;28;1266;-52
2021/07/30 00:38:02;;;;;;;6.47;4.20;;;;;;;13.33;83.75;100462.66;691089;28;3653;-53
2021/07/30 00:38:22;;;;;;;6.77;4.70;;;;;;;13.35;84.53;100463.56;694057;28;1084;-52
2021/07/30 00:38:43;;;;;;;8.00;5.00;;;;;;;13.37;83.63;100460.91;693361;28;1246;-52
2021/07/30 00:39:03;;;;;;;7.70;4.70;;;;;;;13.38;84.12;100460.00;690684;28;3404;-54
2021/07/30 00:39:23;;;;;;;9.10;4.90;;;;;;;13.36;84.46;100461.78;691048;28;1087;-52
2021/07/30 00:39:44;;;;;;;7.57;4.70;;;;;;;13.34;84.40;100466.19;689454;28;4334;-52
2021/07/30 00:40:05;;;;;;;8.80;4.90;;;;;;;13.29;84.95;100461.88;690506;28;1175;-55
2021/07/30 00:40:25;;;;;;;8.57;4.72;;;;;;;13.27;85.47;100461.03;690245;28;1265;-53
2021/07/30 00:40:46;;;;;;;8.48;4.80;;;;;;;13.23;85.02;100461.97;688757;28;2993;-52
2021/07/30 00:41:06;;;;;;;7.17;4.67;;;;;;;13.24;85.56;100460.25;693662;28;4604;-52
2021/07/30 00:41:27;;;;;;;7.75;4.85;;;;;;;13.23;86.40;100461.97;696780;28;1488;-54
2021/07/30 00:41:47;;;;;;;7.33;5.10;;;;;;;13.22;86.73;100460.28;695955;28;1214;-52
2021/07/30 00:42:08;;;;;;;8.10;5.05;;;;;;;13.21;85.72;100463.78;696034;28;1181;-52
2021/07/30 00:42:31;;;;;;;7.53;4.83;;;;;;;13.21;85.97;100466.41;695222;28;1098;-52
2021/07/30 00:42:52;;;;;;;6.95;4.72;;;;;;;13.26;85.13;100461.94;692076;28;4532;-52
2021/07/30 00:43:13;;;;;;;7.43;4.78;;;;;;;13.33;84.92;100462.66;693753;28;1261;-55
2021/07/30 00:43:33;;;;;;;7.50;4.80;;;;;;;13.36;85.19;100467.03;693546;28;3596;-52
2021/07/30 00:43:54;;;;;;;8.88;4.80;;;;;;;13.34;84.83;100463.56;693033;28;1148;-52
2021/07/30 00:44:14;;;;;;;8.37;4.70;;;;;;;13.31;84.77;100463.63;692683;28;3760;-53
2021/07/30 00:44:34;;;;;;;8.02;4.80;;;;;;;13.27;85.01;100465.44;690869;28;1315;-52
2021/07/30 00:44:55;;;;;;;7.93;4.60;;;;;;;13.25;85.26;100465.47;693706;28;958;-52
2021/07/30 00:45:15;;;;;;;8.23;4.50;;;;;;;13.26;84.31;100461.06;694023;28;1407;-52
2021/07/30 00:45:36;;;;;;;7.40;4.90;;;;;;;13.28;85.75;100460.13;693050;28;1573;-54
2021/07/30 00:45:58;;;;;;;8.75;5.10;;;;;;;13.26;85.29;100461.94;692663;28;4957;-52
2021/07/30 00:46:19;;;;;;;6.97;4.80;;;;;;;13.25;84.88;100462.84;692753;28;1352;-52
2021/07/30 00:46:40;;;;;;;7.93;4.80;;;;;;;13.31;83.72;100466.25;692369;28;3533;-52
2021/07/30 00:47:01;;;;;;;9.20;4.85;;;;;;;13.35;84.71;100462.66;692221;28;1181;-53
2021/07/30 00:47:21;;;;;;;8.52;4.80;;;;;;;13.37;84.70;100464.38;691814;28;1226;-51
2021/07/30 00:47:42;;;;;;;7.15;4.60;;;;;;;13.41;83.44;100467.81;693653;28;1118;-54
2021/07/30 00:48:03;;;;;;;7.27;4.53;;;;;;;13.46;83.08;100463.34;695222;28;1949;-51
2021/07/30 00:48:23;;;;;;;6.18;4.40;;;;;;;13.50;82.52;100464.13;695214;28;1182;-51
2021/07/30 00:48:44;;;;;;;7.30;4.68;;;;;;;13.48;83.69;100468.56;693214;28;4455;-53
2021/07/30 00:49:05;;;;;;;7.20;4.63;;;;;;;13.43;84.13;100458.13;694174;28;1028;-52
2021/07/30 00:49:26;;;;;;;7.25;4.80;;;;;;;13.42;84.11;100464.31;693686;28;4264;-52
2021/07/30 00:49:46;;;;;;;6.57;4.50;;;;;;;13.47;82.56;100459.81;692791;28;2301;-52
2021/07/30 00:50:07;;;;;;;7.32;4.28;;;;;;;13.51;83.21;100466.72;694528;28;1482;-53
2021/07/30 00:50:28;;;;;;;8.20;4.82;;;;;;;13.47;84.05;100465.06;693139;28;1274;-54
2021/07/30 00:50:48;;;;;;;10.47;4.70;;;;;;;13.44;84.03;100467.75;694465;28;1206;-52
2021/07/30 00:51:09;;;;;;;8.88;4.60;;;;;;;13.41;83.88;100462.56;695722;28;1241;-54
2021/07/30 00:51:29;;;;;;;7.55;4.65;;;;;;;13.42;82.50;100461.69;696133;28;1237;-52
2021/07/30 00:51:51;;;;;;;7.77;4.70;;;;;;;13.45;82.90;100461.59;694905;28;5311;-51
2021/07/30 00:52:11;;;;;;;8.15;4.70;;;;;;;13.46;83.76;100463.34;692526;28;3812;-54
2021/07/30 00:52:32;;;;;;;7.67;4.63;;;;;;;13.50;82.62;100464.13;693255;28;3564;-52
2021/07/30 00:52:52;;;;;;;7.68;4.65;;;;;;;13.51;82.78;100463.25;693767;28;1387;-53
2021/07/30 00:53:14;;;;;;;7.70;4.70;;;;;;;13.50;82.83;100459.75;692942;28;1419;-51
2021/07/30 00:53:34;;;;;;;7.40;4.80;;;;;;;13.47;83.05;100464.19;692916;28;1241;-53
2021/07/30 00:53:55;;;;;;;8.20;4.73;;;;;;;13.44;83.36;100459.88;693506;28;1085;-53
2021/07/30 00:54:16;;;;;;;7.22;4.43;;;;;;;13.44;83.17;100459.88;695970;28;1277;-52
2021/07/30 00:54:37;;;;;;;6.65;4.80;;;;;;;13.42;83.57;100459.91;694892;28;5391;-52
2021/07/30 00:54:58;;;;;;;8.07;4.87;;;;;;;13.39;84.11;100462.59;695583;28;3655;-51
2021/07/30 00:55:19;;;;;;;7.75;4.85;;;;;;;13.37;84.48;100459.13;694751;28;2510;-54
2021/07/30 00:55:41;;;;;;;8.82;4.90;;;;;;;13.35;84.65;100460.94;694343;28;1531;-51
2021/07/30 00:56:01;;;;;;;7.15;4.70;;;;;;;13.38;83.52;100460.00;695496;28;1277;-52
2021/07/30 00:56:22;;;;;;;7.80;4.77;;;;;;;13.42;82.17;100456.44;693319;28;1219;-54
2021/07/30 00:56:43;;;;;;;7.60;4.57;;;;;;;13.44;84.11;100459.88;692897;28;1979;-52
2021/07/30 00:57:04;;;;;;;7.33;4.57;;;;;;;13.41;83.88;100463.41;692494;28;1064;-52
2021/07/30 00:57:25;;;;;;;7.93;4.50;;;;;;;13.39;84.02;100461.75;693139;28;1604;-53
2021/07/30 00:57:46;;;;;;;7.27;4.70;;;;;;;13.38;84.13;100460.00;692409;28;4579;-55
2021/07/30 00:58:06;;;;;;;7.63;4.70;;;;;;;13.37;83.83;100463.53;692576;28;3960;-51
2021/07/30 00:58:30;;;;;;;7.82;4.57;;;;;;;13.34;84.12;100464.41;693757;28;1689;-51
2021/07/30 00:58:51;;;;;;;7.22;4.60;;;;;;;13.34;84.55;100458.31;695579;28;1016;-52
2021/07/30 00:59:12;;;;;;;7.18;4.63;;;;;;;13.37;83.50;100460.91;696506;28;1237;-53
2021/07/30 00:59:34;;;;;;;7.17;4.70;;;;;;;13.41;82.96;100459.94;695792;28;1598;-52
2021/07/30 00:59:55;;;;;;;9.00;4.72;;;;;;;13.46;83.02;100458.09;696744;28;1043;-53
2021/07/30 01:00:16;;;;;;;8.82;4.43;;;;;;;13.49;83.98;100462.44;695639;28;1186;-52
2021/07/30 01:00:36;;;;;;;8.23;4.45;;;;;;;13.52;83.27;100463.22;695737;28;4000;-53
2021/07/30 01:00:57;;;;;;;7.90;4.40;;;;;;;13.54;83.00;100461.44;694183;28;4437;-52
2021/07/30 01:01:18;;;;;;;6.70;4.50;;;;;;;13.55;82.88;100451.78;695640;28;1223;-50
2021/07/30 01:01:39;;;;;;;8.23;4.78;;;;;;;13.56;82.57;100457.00;693231;28;1067;-52
2021/07/30 01:01:59;;;;;;;7.05;4.65;;;;;;;13.55;82.76;100457.03;693748;28;1279;-52
2021/07/30 01:02:20;;;;;;;7.13;4.70;;;;;;;13.53;83.34;100454.44;692820;28;1289;-54
2021/07/30 01:02:40;;;;;;;8.32;4.70;;;;;;;13.52;83.55;100457.97;693045;28;1096;-51
2021/07/30 01:03:02;;;;;;;7.93;4.75;;;;;;;13.49;83.14;100460.66;692442;28;1332;-56
2021/07/30 01:03:22;;;;;;;7.97;4.78;;;;;;;13.50;83.49;100461.50;693821;28;3639;-54
2021/07/30 01:03:43;;;;;;;6.30;4.60;;;;;;;13.50;83.33;100462.38;694710;28;4725;-54
2021/07/30 01:04:04;;;;;;;7.90;4.80;;;;;;;13.50;83.48;100454.50;694570;28;3469;-53
2021/07/30 01:04:24;;;;;;;6.97;4.38;;;;;;;13.48;83.81;100461.53;696005;28;1384;-54
2021/07/30 01:04:45;;;;;;;8.10;4.53;;;;;;;13.47;83.96;100454.53;694716;28;1250;-54
2021/07/30 01:05:06;;;;;;;8.00;4.80;;;;;;;13.46;83.40;100455.47;695391;28;1054;-54
2021/07/30 01:05:30;;;;;;;7.93;4.95;;;;;;;13.47;82.90;100458.94;695596;28;1087;-55
2021/07/30 01:05:51;;;;;;;6.32;4.43;;;;;;;13.48;83.60;100455.44;695993;28;1119;-54
2021/07/30 01:06:11;;;;;;;8.68;4.78;;;;;;;13.49;82.90;100458.03;696192;28;4023;-51
2021/07/30 01:06:32;;;;;;;9.80;4.90;;;;;;;13.51;83.41;100460.63;694941;28;3494;-54
2021/07/30 01:06:53;;;;;;;8.15;4.80;;;;;;;13.51;84.09;100461.47;691396;28;4545;-60
2021/07/30 01:07:13;;;;;;;8.87;4.97;;;;;;;13.51;84.60;100461.47;692894;28;1134;-51
2021/07/30 01:07:36;;;;;;;7.65;4.75;;;;;;;13.51;84.41;100455.38;692611;28;1377;-55
2021/07/30 01:07:58;;;;;;;7.20;4.65;;;;;;;13.50;84.37;100454.50;691930;28;1485;-53
2021/07/30 01:08:18;;;;;;;7.70;4.40;;;;;;;13.52;83.76;100462.34;692749;28;1926;-55
2021/07/30 01:08:39;;;;;;;8.80;4.30;;;;;;;13.52;83.54;100457.97;694034;28;1223;-51
2021/07/30 01:09:00;;;;;;;7.43;4.30;;;;;;;13.54;84.11;100455.28;695784;28;3349;-54
2021/07/30 01:09:20;;;;;;;6.72;4.38;;;;;;;13.54;83.52;100450.94;694671;28;3313;-55
2021/07/30 01:09:41;;;;;;;6.63;4.40;;;;;;;13.63;82.12;100455.13;694237;28;4724;-53
2021/07/30 01:10:02;;;;;;;8.20;4.60;;;;;;;13.66;82.89;100457.66;693445;28;1995;-53
2021/07/30 01:10:22;;;;;;;7.40;4.32;;;;;;;13.65;84.12;100457.72;693065;28;1306;-51
2021/07/30 01:10:43;;;;;;;7.85;4.60;;;;;;;13.61;84.20;100454.28;690020;28;1282;-52
2021/07/30 01:11:03;;;;;;;7.43;4.70;;;;;;;13.60;84.51;100455.19;690957;28;1432;-52
2021/07/30 01:11:24;;;;;;;7.10;4.50;;;;;;;13.60;83.21;100456.03;694309;28;1301;-53
2021/07/30 01:11:44;;;;;;;7.50;4.37;;;;;;;13.60;83.58;100458.66;693452;28;1072;-53
2021/07/30 01:12:07;;;;;;;9.30;4.70;;;;;;;13.58;83.83;100460.47;693251;28;1940;-54
2021/07/30 01:12:27;;;;;;;9.48;4.70;;;;;;;13.56;83.79;100457.00;693050;28;1486;-51
2021/07/30 01:12:48;;;;;;;7.97;4.70;;;;;;;13.56;84.14;100456.16;692356;28;4427;-51
2021/07/30 01:13:08;;;;;;;7.60;4.65;;;;;;;13.55;84.02;100457.88;693599;28;1087;-54
2021/07/30 01:13:29;;;;;;;7.87;4.50;;;;;;;13.55;84.02;100463.13;693866;28;1065;-55
2021/07/30 01:13:49;;;;;;;7.73;4.53;;;;;;;13.56;84.08;100458.78;690698;28;1168;-52
2021/07/30 01:14:10;;;;;;;7.73;4.70;;;;;;;13.56;83.95;100459.63;690100;28;1198;-55
2021/07/30 01:14:30;;;;;;;8.10;4.45;;;;;;;13.54;83.95;100456.19;691266;28;1053;-52
2021/07/30 01:14:53;;;;;;;8.03;4.13;;;;;;;13.54;84.25;100457.91;692827;28;3404;-52
2021/07/30 01:15:14;;;;;;;6.97;4.50;;;;;;;13.53;84.46;100459.69;692805;28;1193;-55
2021/07/30 01:15:34;;;;;;;7.93;4.65;;;;;;;13.53;84.65;100456.22;690314;28;1143;-51
2021/07/30 01:15:54;;;;;;;7.33;4.70;;;;;;;13.52;84.26;100452.72;690413;28;4581;-51
2021/07/30 01:16:15;;;;;;;7.00;4.50;;;;;;;13.53;84.06;100457.06;688581;28;1282;-51
2021/07/30 01:16:36;;;;;;;6.30;4.33;;;;;;;13.53;84.12;100457.06;688394;28;1564;-54
2021/07/30 01:16:57;;;;;;;6.32;4.50;;;;;;;13.53;84.26;100462.31;687200;28;1262;-53
2021/07/30 01:17:17;;;;;;;7.88;4.57;;;;;;;13.55;83.89;100462.28;689018;28;1041;-52
2021/07/30 01:17:38;;;;;;;7.53;4.82;;;;;;;13.54;83.77;100456.19;691238;28;3653;-52
2021/07/30 01:17:58;;;;;;;7.63;4.60;;;;;;;13.55;83.54;100455.25;688325;28;3422;-54
2021/07/30 01:18:19;;;;;;;7.50;4.43;;;;;;;13.55;83.98;100457.03;688535;28;1282;-52
2021/07/30 01:18:39;;;;;;;8.43;4.90;;;;;;;13.55;84.61;100455.25;688395;28;4494;-55
2021/07/30 01:18:59;;;;;;;7.45;4.93;;;;;;;13.55;84.68;100452.63;688737;28;1190;-52
2021/07/30 01:19:22;;;;;;;7.53;4.87;;;;;;;13.56;84.07;100459.63;688983;28;1203;-51
2021/07/30 01:19:43;;;;;;;6.60;4.40;;;;;;;13.60;83.45;100453.41;689568;28;1649;-53
2021/07/30 01:20:04;;;;;;;6.63;4.50;;;;;;;13.59;84.29;100448.19;694431;28;1196;-52
2021/07/30 01:20:26;;;;;;;6.90;4.70;;;;;;;13.58;83.91;100452.59;694735;28;3897;-54
2021/07/30 01:21:06;;;;;;;7.90;4.78;;;;;;;13.62;82.95;100449.00;694260;28;3531;-54
2021/07/30 01:21:30;;;;;;;8.70;4.63;;;;;;;13.66;83.37;100448.94;696340;28;1387;-51
2021/07/30 01:21:55;;;;;;;7.78;4.60;;;;;;;13.67;84.25;100448.91;695097;28;4452;-52
2021/07/30 01:22:23;;;;;;;7.35;4.80;;;;;;;13.63;84.55;100450.72;695359;28;1009;-53
2021/07/30 01:22:58;;;;;;;8.50;4.45;;;;;;;13.68;83.26;100455.00;695339;28;1589;-53
2021/07/30 01:23:18;;;;;;;6.18;4.20;;;;;;;13.68;83.97;100455.00;695684;28;2105;-52
2021/07/30 01:23:39;;;;;;;7.97;4.30;;;;;;;13.72;82.21;100454.03;695143;28;1155;-54
2021/07/30 01:23:59;;;;;;;8.03;4.10;;;;;;;13.80;81.08;100454.75;694694;28;1100;-51
2021/07/30 01:24:21;;;;;;;7.53;4.40;;;;;;;13.81;83.06;100455.63;694936;28;1238;-54
2021/07/30 01:24:41;;;;;;;6.93;4.60;;;;;;;13.76;82.68;100453.97;695740;28;4349;-51
2021/07/30 01:25:02;;;;;;;8.32;4.47;;;;;;;13.76;83.18;100455.72;695156;28;1040;-55
2021/07/30 01:25:24;;;;;;;7.88;4.43;;;;;;;13.74;83.12;100458.38;693356;28;1198;-52
2021/07/30 01:25:44;;;;;;;7.25;4.57;;;;;;;13.74;83.12;100453.13;692889;28;1239;-55
2021/07/30 01:26:05;;;;;;;9.13;4.95;;;;;;;13.74;83.12;100457.53;692707;28;2401;-52
2021/07/30 01:26:26;;;;;;;8.57;4.70;;;;;;;13.73;82.78;100454.00;692915;28;2607;-56
2021/07/30 01:26:48;;;;;;;7.63;4.60;;;;;;;13.73;83.05;100455.78;692580;28;1170;-54
2021/07/30 01:27:08;;;;;;;8.02;4.60;;;;;;;13.74;82.68;100449.66;694247;28;1088;-52
2021/07/30 01:27:28;;;;;;;6.53;4.30;;;;;;;13.76;83.07;100453.09;695161;28;1246;-52
2021/07/30 01:27:50;;;;;;;6.53;4.50;;;;;;;13.76;82.94;100448.72;694668;28;4327;-54
2021/07/30 01:28:10;;;;;;;6.68;4.30;;;;;;;13.76;83.53;100450.47;695707;28;1910;-53
2021/07/30 01:28:31;;;;;;;7.20;4.40;;;;;;;13.73;83.66;100453.16;694632;28;1078;-52
2021/07/30 01:28:51;;;;;;;8.77;4.18;;;;;;;13.72;83.89;100446.16;693572;28;3642;-54
2021/07/30 01:29:12;;;;;;;9.70;4.40;;;;;;;13.73;83.49;100445.28;692301;28;4099;-55
2021/07/30 01:29:32;;;;;;;7.68;4.32;;;;;;;13.72;82.89;100449.69;693156;28;1294;-52
2021/07/30 01:29:53;;;;;;;7.87;4.40;;;;;;;13.75;83.00;100448.75;693232;28;1235;-55
2021/07/30 01:30:15;;;;;;;8.02;4.45;;;;;;;13.75;82.41;100444.34;693476;28;1238;-53
2021/07/30 01:30:35;;;;;;;7.07;4.13;;;;;;;13.76;82.18;100443.47;692893;28;1222;-54
2021/07/30 01:30:56;;;;;;;7.23;4.33;;;;;;;13.76;82.51;100446.09;695667;28;4357;-54
2021/07/30 01:31:16;;;;;;;8.38;4.30;;;;;;;13.78;82.01;100448.69;696493;28;1326;-55
2021/07/30 01:31:37;;;;;;;7.55;4.40;;;;;;;13.78;82.62;100448.69;692894;28;1485;-56
2021/07/30 01:31:57;;;;;;;7.90;4.60;;;;;;;13.76;82.57;100445.22;692517;28;3738;-51
2021/07/30 01:32:19;;;;;;;6.90;4.50;;;;;;;13.73;82.75;100445.28;693034;28;1302;-51
2021/07/30 01:32:40;;;;;;;7.25;4.28;;;;;;;13.73;82.28;100443.50;692731;28;1451;-56
2021/07/30 01:33:00;;;;;;;6.93;3.97;;;;;;;13.76;81.76;100450.47;692375;28;1496;-55
2021/07/30 01:33:20;;;;;;;7.10;4.50;;;;;;;13.78;82.22;100451.31;693032;28;1321;-54
2021/07/30 01:33:41;;;;;;;8.97;4.70;;;;;;;13.78;82.02;100446.06;696023;28;4522;-54
2021/07/30 01:34:03;;;;;;;8.13;4.73;;;;;;;13.77;81.95;100446.94;694849;28;1394;-51
2021/07/30 01:34:24;;;;;;;7.72;4.68;;;;;;;13.80;81.78;100446.88;696582;28;1474;-54
2021/07/30 01:34:44;;;;;;;7.57;4.83;;;;;;;13.78;82.73;100443.44;692470;28;3648;-59
2021/07/30 01:35:04;;;;;;;7.43;4.63;;;;;;;13.76;83.36;100443.47;693201;28;1234;-51
2021/07/30 01:35:25;;;;;;;7.53;4.47;;;;;;;13.74;83.00;100447.88;694031;28;1376;-53
2021/07/30 01:35:45;;;;;;;6.82;4.47;;;;;;;13.74;83.31;100452.28;693532;28;985;-52
2021/07/30 01:36:06;;;;;;;7.83;4.83;;;;;;;13.73;83.12;100447.91;692477;28;1295;-55
2021/07/30 01:36:26;;;;;;;7.70;4.60;;;;;;;13.71;83.51;100449.72;693856;28;1225;-52
2021/07/30 01:36:46;;;;;;;7.47;4.20;;;;;;;13.70;83.57;100447.97;695440;28;4572;-53
2021/07/30 01:37:07;;;;;;;7.20;4.30;;;;;;;13.70;83.31;100448.84;695761;28;1120;-53
2021/07/30 01:37:27;;;;;;;6.85;4.68;;;;;;;13.70;83.16;100447.97;695517;28;3153;-52
2021/07/30 01:37:47;;;;;;;6.83;4.90;;;;;;;13.72;82.40;100443.53;694893;28;3760;-51
2021/07/30 01:38:09;;;;;;;7.30;4.47;;;;;;;13.73;82.62;100448.75;692180;28;1301;-55
2021/07/30 01:38:30;;;;;;;7.25;4.28;;;;;;;13.77;81.58;100447.78;692586;28;1308;-56
2021/07/30 01:38:51;;;;;;;7.60;4.30;;;;;;;13.82;82.64;100446.84;690652;28;3408;-53
2021/07/30 01:39:11;;;;;;;8.88;4.80;;;;;;;13.81;84.59;100448.59;690195;28;1536;-54